Accueil
METAR-TAF:

METAR-TAF

Aéroports :

Springbok, Afrique du Sud

latitude: 29-40S, longitude: 17-53E, altitude: 1006 m

Observation

Le bulletin a été fait il y a 4 heures et 51 minutes, à 08:49 UTC
Vent 6 kt de nord
Température 24°C
Humidité 15%
Pression 1026 hPa
Visibilité 10 km ou plus
pas de nuages en-dessous de 1500 mètres et pas de cumulonimbus.

METAR: FASB 270849Z 01006KT CAVOK 24/M04 Q1026

Heure: 15:40 (13:40 UTC)


TAF: absent

Observations et prévisions météorologiques de plus de 4000 aéroports (messages METAR et TAF).

Les stations disponibles sont représentées par des disques jaunes et rouges sur la carte.

Passer la souris dessus pour voir le nom de la station.

Cliquer dessus pour voir les observations et prévisions météorologiques.

Pour changer de carte: cliquez sur les boutons verts avec une croix noire pour zoomer, sur le bouton vert avec un tiret pour effectuer un zoom arrière, ou sur les flèches vertes pour les cartes adjacentes.


METAR-TAF: